Главная страница
METAR-TAF:

METAR-TAF

Аэропорты :

Каир, Египет

широта: 30-08N, долгота: 031-24E, высота над уровнем моря: 64 м

Текущие метеонаблюдения

Эта сводка был подготовлена 14 минут назад, в 14:00 UTC
Ветер 10 Узел от северный
Температура 25°C
Влажность 28%
Давление 1012 hPa
Видимость 10 км и более
Отдельные облака на высоте 2500 фута

METAR: HECA 221400Z 35010KT 9999 SCT025 25/05 Q1012 NOSIG

Время: 16:14 (14:14 UTC)

Прогноз

Эта сводка был подготовлена 3 часа и 14 минут назад, в 11:00 UTC
Прогноз действительный с 22-го 12 UTC до 23-го 18 UTC
Ветер 9 Узел от северный
Видимость 10 км и более
Отдельные облака на высоте 2500 фута
временами
С 22-го 15 UTC до 22-го 21 UTC
Ветер 9 Узел от северный с порывами до 20 Узел
Вероятность 40%
С 23-го 00 UTC до 23-го 06 UTC
Ветер 6 Узел от северный
Видимость: 4000 м
дымка

TAF: HECA 221100Z 2212/2318 35009KT 9999 SCT025 TEMPO 2215/2221 35009G20KT PROB40 2300/2306 36006KT 4000 BR NSC

Метеонаблюдения и прогнозы для более 4000 аэропортов (сводки METAR и TAF).

Имеющиеся станции представлены на карте желтыми и красными точками.

Чтобы увидеть название станции, наведите на нее мышь.

Затем щелкните, чтобы увидеть метеонаблюдения и метеопрогнозы.

Управление картой: чтобы увеличить масштаб, щелкните зеленые кнопки с черным крестиком; чтобы уменьшить масштаб, щелкните зеленую кнопку с тире; для просмотра соседних карт щелкайте зеленые стрелки.


METAR-TAF: